sensor_id;sensor_type;location;lat;lon;timestamp;P1;durP1;ratioP1;P2;durP2;ratioP2
4377;SDS011;2203;53.686;9.994;2023-06-14T00:01:45;9.53;;;3.67;;
4377;SDS011;2203;53.686;9.994;2023-06-14T00:04:11;8.63;;;3.67;;
4377;SDS011;2203;53.686;9.994;2023-06-14T00:06:38;6.63;;;3.47;;
4377;SDS011;2203;53.686;9.994;2023-06-14T00:09:03;10.70;;;3.97;;
4377;SDS011;2203;53.686;9.994;2023-06-14T00:11:30;4.97;;;3.53;;
4377;SDS011;2203;53.686;9.994;2023-06-14T00:13:58;8.77;;;4.40;;
4377;SDS011;2203;53.686;9.994;2023-06-14T00:16:23;10.83;;;3.90;;
4377;SDS011;2203;53.686;9.994;2023-06-14T00:18:49;17.97;;;5.00;;
4377;SDS011;2203;53.686;9.994;2023-06-14T00:21:16;10.23;;;4.00;;
4377;SDS011;2203;53.686;9.994;2023-06-14T00:23:42;11.50;;;4.90;;
4377;SDS011;2203;53.686;9.994;2023-06-14T00:26:08;8.00;;;4.20;;
4377;SDS011;2203;53.686;9.994;2023-06-14T00:28:33;8.00;;;3.83;;
4377;SDS011;2203;53.686;9.994;2023-06-14T00:30:58;10.50;;;4.67;;
4377;SDS011;2203;53.686;9.994;2023-06-14T00:33:24;15.53;;;4.70;;
4377;SDS011;2203;53.686;9.994;2023-06-14T00:35:50;13.13;;;4.00;;
4377;SDS011;2203;53.686;9.994;2023-06-14T00:38:18;7.50;;;4.00;;
4377;SDS011;2203;53.686;9.994;2023-06-14T00:40:44;8.10;;;4.47;;
4377;SDS011;2203;53.686;9.994;2023-06-14T00:43:09;9.13;;;4.10;;
4377;SDS011;2203;53.686;9.994;2023-06-14T00:45:35;15.13;;;4.97;;
4377;SDS011;2203;53.686;9.994;2023-06-14T00:48:01;12.70;;;4.97;;
4377;SDS011;2203;53.686;9.994;2023-06-14T00:50:28;15.90;;;5.30;;
4377;SDS011;2203;53.686;9.994;2023-06-14T00:52:54;9.63;;;5.20;;
4377;SDS011;2203;53.686;9.994;2023-06-14T00:55:20;17.30;;;5.30;;
4377;SDS011;2203;53.686;9.994;2023-06-14T00:57:46;8.00;;;4.23;;
4377;SDS011;2203;53.686;9.994;2023-06-14T01:00:12;11.93;;;4.57;;
4377;SDS011;2203;53.686;9.994;2023-06-14T01:02:38;13.53;;;4.93;;
4377;SDS011;2203;53.686;9.994;2023-06-14T01:05:04;10.47;;;5.10;;
4377;SDS011;2203;53.686;9.994;2023-06-14T01:15:45;12.77;;;6.20;;
4377;SDS011;2203;53.686;9.994;2023-06-14T01:18:11;11.47;;;4.50;;
4377;SDS011;2203;53.686;9.994;2023-06-14T01:20:42;13.37;;;4.97;;
4377;SDS011;2203;53.686;9.994;2023-06-14T01:23:09;12.00;;;4.57;;
4377;SDS011;2203;53.686;9.994;2023-06-14T01:25:38;11.07;;;4.70;;
4377;SDS011;2203;53.686;9.994;2023-06-14T01:28:09;7.47;;;4.33;;
4377;SDS011;2203;53.686;9.994;2023-06-14T01:30:36;8.30;;;4.33;;
4377;SDS011;2203;53.686;9.994;2023-06-14T01:33:03;15.50;;;4.60;;
4377;SDS011;2203;53.686;9.994;2023-06-14T01:35:28;15.53;;;4.90;;
4377;SDS011;2203;53.686;9.994;2023-06-14T01:37:54;14.60;;;4.80;;
4377;SDS011;2203;53.686;9.994;2023-06-14T01:40:20;10.40;;;4.70;;
4377;SDS011;2203;53.686;9.994;2023-06-14T01:42:46;10.05;;;4.78;;
4377;SDS011;2203;53.686;9.994;2023-06-14T01:45:13;10.73;;;4.77;;
4377;SDS011;2203;53.686;9.994;2023-06-14T01:47:39;15.70;;;5.10;;
4377;SDS011;2203;53.686;9.994;2023-06-14T01:50:05;7.77;;;3.77;;
4377;SDS011;2203;53.686;9.994;2023-06-14T01:52:30;17.93;;;4.33;;
4377;SDS011;2203;53.686;9.994;2023-06-14T01:54:56;12.23;;;4.37;;
4377;SDS011;2203;53.686;9.994;2023-06-14T01:57:22;10.50;;;5.10;;
4377;SDS011;2203;53.686;9.994;2023-06-14T01:59:49;12.60;;;4.77;;
4377;SDS011;2203;53.686;9.994;2023-06-14T02:02:14;9.87;;;4.50;;
4377;SDS011;2203;53.686;9.994;2023-06-14T02:04:40;11.40;;;3.80;;
4377;SDS011;2203;53.686;9.994;2023-06-14T02:07:06;13.77;;;4.15;;
4377;SDS011;2203;53.686;9.994;2023-06-14T02:09:32;11.73;;;4.75;;
4377;SDS011;2203;53.686;9.994;2023-06-14T02:11:58;13.43;;;4.70;;
4377;SDS011;2203;53.686;9.994;2023-06-14T02:14:24;11.93;;;4.00;;
4377;SDS011;2203;53.686;9.994;2023-06-14T02:16:49;20.30;;;4.50;;
4377;SDS011;2203;53.686;9.994;2023-06-14T02:19:18;11.60;;;4.60;;
4377;SDS011;2203;53.686;9.994;2023-06-14T02:21:44;10.23;;;4.50;;
4377;SDS011;2203;53.686;9.994;2023-06-14T02:24:10;11.57;;;4.17;;
4377;SDS011;2203;53.686;9.994;2023-06-14T02:26:36;12.87;;;5.20;;
4377;SDS011;2203;53.686;9.994;2023-06-14T02:29:06;11.63;;;4.30;;
4377;SDS011;2203;53.686;9.994;2023-06-14T02:31:33;11.50;;;4.50;;
4377;SDS011;2203;53.686;9.994;2023-06-14T02:34:00;12.50;;;4.80;;
4377;SDS011;2203;53.686;9.994;2023-06-14T02:36:25;14.00;;;4.50;;
4377;SDS011;2203;53.686;9.994;2023-06-14T02:38:51;13.53;;;4.80;;
4377;SDS011;2203;53.686;9.994;2023-06-14T02:41:18;11.00;;;4.88;;
4377;SDS011;2203;53.686;9.994;2023-06-14T02:43:43;17.93;;;4.93;;
4377;SDS011;2203;53.686;9.994;2023-06-14T02:46:09;11.47;;;5.00;;
4377;SDS011;2203;53.686;9.994;2023-06-14T02:48:34;17.60;;;5.30;;
4377;SDS011;2203;53.686;9.994;2023-06-14T02:50:59;14.13;;;5.17;;
4377;SDS011;2203;53.686;9.994;2023-06-14T02:53:25;14.10;;;4.73;;
4377;SDS011;2203;53.686;9.994;2023-06-14T02:55:50;12.80;;;5.33;;
4377;SDS011;2203;53.686;9.994;2023-06-14T02:58:17;13.43;;;4.37;;
4377;SDS011;2203;53.686;9.994;2023-06-14T03:00:43;10.40;;;4.93;;
4377;SDS011;2203;53.686;9.994;2023-06-14T03:03:09;14.07;;;5.30;;
4377;SDS011;2203;53.686;9.994;2023-06-14T03:05:40;8.77;;;4.40;;
4377;SDS011;2203;53.686;9.994;2023-06-14T03:08:11;7.97;;;4.80;;
4377;SDS011;2203;53.686;9.994;2023-06-14T03:10:42;9.77;;;5.17;;
4377;SDS011;2203;53.686;9.994;2023-06-14T03:13:08;14.67;;;5.80;;
4377;SDS011;2203;53.686;9.994;2023-06-14T03:15:33;15.50;;;5.60;;
4377;SDS011;2203;53.686;9.994;2023-06-14T03:17:59;11.10;;;5.33;;
4377;SDS011;2203;53.686;9.994;2023-06-14T03:20:24;11.67;;;5.67;;
4377;SDS011;2203;53.686;9.994;2023-06-14T03:22:54;15.65;;;5.68;;
4377;SDS011;2203;53.686;9.994;2023-06-14T03:25:20;14.70;;;5.60;;
4377;SDS011;2203;53.686;9.994;2023-06-14T03:27:47;13.10;;;5.80;;
4377;SDS011;2203;53.686;9.994;2023-06-14T03:30:12;12.90;;;5.63;;
4377;SDS011;2203;53.686;9.994;2023-06-14T03:32:38;7.90;;;5.17;;
4377;SDS011;2203;53.686;9.994;2023-06-14T03:35:04;19.70;;;6.30;;
4377;SDS011;2203;53.686;9.994;2023-06-14T03:37:30;10.77;;;5.60;;
4377;SDS011;2203;53.686;9.994;2023-06-14T03:39:55;14.73;;;6.40;;
4377;SDS011;2203;53.686;9.994;2023-06-14T03:42:20;11.67;;;5.33;;
4377;SDS011;2203;53.686;9.994;2023-06-14T03:44:46;14.23;;;6.10;;
4377;SDS011;2203;53.686;9.994;2023-06-14T03:47:11;18.40;;;5.90;;
4377;SDS011;2203;53.686;9.994;2023-06-14T03:49:37;9.80;;;5.60;;
4377;SDS011;2203;53.686;9.994;2023-06-14T03:52:02;15.93;;;6.63;;
4377;SDS011;2203;53.686;9.994;2023-06-14T03:54:28;12.70;;;5.20;;
4377;SDS011;2203;53.686;9.994;2023-06-14T03:56:54;12.07;;;6.00;;
4377;SDS011;2203;53.686;9.994;2023-06-14T03:59:22;17.50;;;6.70;;
4377;SDS011;2203;53.686;9.994;2023-06-14T04:01:48;15.03;;;5.77;;
4377;SDS011;2203;53.686;9.994;2023-06-14T04:04:13;11.50;;;5.97;;
4377;SDS011;2203;53.686;9.994;2023-06-14T04:06:41;16.80;;;6.23;;
4377;SDS011;2203;53.686;9.994;2023-06-14T04:09:08;12.57;;;5.27;;
4377;SDS011;2203;53.686;9.994;2023-06-14T04:11:33;8.63;;;5.20;;
4377;SDS011;2203;53.686;9.994;2023-06-14T04:13:59;19.13;;;6.33;;
4377;SDS011;2203;53.686;9.994;2023-06-14T04:16:25;17.30;;;6.28;;
4377;SDS011;2203;53.686;9.994;2023-06-14T04:18:50;12.83;;;6.53;;
4377;SDS011;2203;53.686;9.994;2023-06-14T04:21:17;12.63;;;5.60;;
4377;SDS011;2203;53.686;9.994;2023-06-14T04:23:43;14.32;;;6.30;;
4377;SDS011;2203;53.686;9.994;2023-06-14T04:26:09;11.00;;;4.87;;
4377;SDS011;2203;53.686;9.994;2023-06-14T04:28:35;17.10;;;4.87;;
4377;SDS011;2203;53.686;9.994;2023-06-14T04:31:06;16.03;;;5.10;;
4377;SDS011;2203;53.686;9.994;2023-06-14T04:33:34;10.73;;;5.20;;
4377;SDS011;2203;53.686;9.994;2023-06-14T04:36:08;8.57;;;5.37;;
4377;SDS011;2203;53.686;9.994;2023-06-14T04:38:35;20.90;;;5.53;;
4377;SDS011;2203;53.686;9.994;2023-06-14T04:41:01;15.07;;;5.37;;
4377;SDS011;2203;53.686;9.994;2023-06-14T04:43:26;16.63;;;5.23;;
4377;SDS011;2203;53.686;9.994;2023-06-14T04:45:52;8.57;;;4.93;;
4377;SDS011;2203;53.686;9.994;2023-06-14T04:48:21;8.93;;;4.60;;
4377;SDS011;2203;53.686;9.994;2023-06-14T04:50:47;13.43;;;5.37;;
4377;SDS011;2203;53.686;9.994;2023-06-14T04:53:13;12.83;;;5.00;;
4377;SDS011;2203;53.686;9.994;2023-06-14T04:55:38;12.67;;;5.17;;
4377;SDS011;2203;53.686;9.994;2023-06-14T04:58:04;14.20;;;5.20;;
4377;SDS011;2203;53.686;9.994;2023-06-14T05:00:29;13.17;;;5.07;;
4377;SDS011;2203;53.686;9.994;2023-06-14T05:02:55;21.03;;;5.70;;
4377;SDS011;2203;53.686;9.994;2023-06-14T05:05:22;14.33;;;5.17;;
4377;SDS011;2203;53.686;9.994;2023-06-14T05:07:47;13.70;;;5.10;;
4377;SDS011;2203;53.686;9.994;2023-06-14T05:10:13;15.80;;;5.03;;
4377;SDS011;2203;53.686;9.994;2023-06-14T05:12:38;16.47;;;4.87;;
4377;SDS011;2203;53.686;9.994;2023-06-14T05:15:04;14.00;;;4.20;;
4377;SDS011;2203;53.686;9.994;2023-06-14T05:17:29;9.70;;;4.20;;
4377;SDS011;2203;53.686;9.994;2023-06-14T05:19:55;13.60;;;4.30;;
4377;SDS011;2203;53.686;9.994;2023-06-14T05:22:21;19.17;;;4.50;;
4377;SDS011;2203;53.686;9.994;2023-06-14T05:24:46;11.23;;;4.00;;
4377;SDS011;2203;53.686;9.994;2023-06-14T05:27:13;12.77;;;3.97;;
4377;SDS011;2203;53.686;9.994;2023-06-14T05:29:38;10.17;;;4.63;;
4377;SDS011;2203;53.686;9.994;2023-06-14T05:32:05;9.60;;;4.47;;
4377;SDS011;2203;53.686;9.994;2023-06-14T05:34:30;17.83;;;5.07;;
4377;SDS011;2203;53.686;9.994;2023-06-14T05:36:56;7.47;;;3.90;;
4377;SDS011;2203;53.686;9.994;2023-06-14T05:39:22;14.13;;;4.53;;
4377;SDS011;2203;53.686;9.994;2023-06-14T05:41:49;9.87;;;4.90;;
4377;SDS011;2203;53.686;9.994;2023-06-14T05:44:14;18.40;;;4.10;;
4377;SDS011;2203;53.686;9.994;2023-06-14T05:46:40;12.93;;;4.10;;
4377;SDS011;2203;53.686;9.994;2023-06-14T05:49:06;18.53;;;4.40;;
4377;SDS011;2203;53.686;9.994;2023-06-14T05:51:31;9.47;;;5.17;;
4377;SDS011;2203;53.686;9.994;2023-06-14T05:53:56;18.17;;;4.63;;
4377;SDS011;2203;53.686;9.994;2023-06-14T05:56:22;16.23;;;5.03;;
4377;SDS011;2203;53.686;9.994;2023-06-14T05:58:47;10.20;;;4.20;;
4377;SDS011;2203;53.686;9.994;2023-06-14T06:01:13;8.53;;;4.10;;
4377;SDS011;2203;53.686;9.994;2023-06-14T06:03:38;15.20;;;4.40;;
4377;SDS011;2203;53.686;9.994;2023-06-14T06:06:04;7.90;;;4.10;;
4377;SDS011;2203;53.686;9.994;2023-06-14T06:08:29;13.17;;;3.87;;
4377;SDS011;2203;53.686;9.994;2023-06-14T06:10:56;11.83;;;3.43;;
4377;SDS011;2203;53.686;9.994;2023-06-14T06:13:22;13.90;;;4.00;;
4377;SDS011;2203;53.686;9.994;2023-06-14T06:15:47;5.10;;;2.70;;
4377;SDS011;2203;53.686;9.994;2023-06-14T06:18:13;19.30;;;4.23;;
4377;SDS011;2203;53.686;9.994;2023-06-14T06:20:38;11.53;;;3.70;;
4377;SDS011;2203;53.686;9.994;2023-06-14T06:23:03;18.80;;;3.80;;
4377;SDS011;2203;53.686;9.994;2023-06-14T06:25:29;10.20;;;4.20;;
4377;SDS011;2203;53.686;9.994;2023-06-14T06:27:57;5.22;;;3.38;;
4377;SDS011;2203;53.686;9.994;2023-06-14T06:30:22;11.40;;;4.27;;
4377;SDS011;2203;53.686;9.994;2023-06-14T06:32:48;5.80;;;3.23;;
4377;SDS011;2203;53.686;9.994;2023-06-14T06:35:13;14.00;;;4.63;;
4377;SDS011;2203;53.686;9.994;2023-06-14T06:37:39;21.33;;;4.00;;
4377;SDS011;2203;53.686;9.994;2023-06-14T06:40:06;15.80;;;3.53;;
4377;SDS011;2203;53.686;9.994;2023-06-14T06:42:33;6.57;;;2.63;;
4377;SDS011;2203;53.686;9.994;2023-06-14T06:44:59;15.03;;;3.10;;
4377;SDS011;2203;53.686;9.994;2023-06-14T06:47:24;6.87;;;2.73;;
4377;SDS011;2203;53.686;9.994;2023-06-14T06:49:50;16.33;;;3.13;;
4377;SDS011;2203;53.686;9.994;2023-06-14T06:52:15;15.43;;;3.53;;
4377;SDS011;2203;53.686;9.994;2023-06-14T06:54:41;6.23;;;2.77;;
4377;SDS011;2203;53.686;9.994;2023-06-14T06:57:06;4.87;;;2.70;;
4377;SDS011;2203;53.686;9.994;2023-06-14T06:59:32;5.87;;;3.00;;
4377;SDS011;2203;53.686;9.994;2023-06-14T07:01:59;7.80;;;2.60;;
4377;SDS011;2203;53.686;9.994;2023-06-14T07:04:24;10.60;;;2.60;;
4377;SDS011;2203;53.686;9.994;2023-06-14T07:06:50;9.00;;;3.27;;
4377;SDS011;2203;53.686;9.994;2023-06-14T07:09:16;7.53;;;3.07;;
4377;SDS011;2203;53.686;9.994;2023-06-14T07:11:42;3.73;;;2.87;;
4377;SDS011;2203;53.686;9.994;2023-06-14T07:14:08;14.43;;;3.20;;
4377;SDS011;2203;53.686;9.994;2023-06-14T07:16:34;4.17;;;2.30;;
4377;SDS011;2203;53.686;9.994;2023-06-14T07:18:59;9.40;;;2.90;;
4377;SDS011;2203;53.686;9.994;2023-06-14T07:21:25;9.33;;;3.03;;
4377;SDS011;2203;53.686;9.994;2023-06-14T07:23:52;7.37;;;2.50;;
4377;SDS011;2203;53.686;9.994;2023-06-14T07:26:18;14.23;;;3.30;;
4377;SDS011;2203;53.686;9.994;2023-06-14T07:28:43;14.00;;;2.80;;
4377;SDS011;2203;53.686;9.994;2023-06-14T07:31:10;4.57;;;2.90;;
4377;SDS011;2203;53.686;9.994;2023-06-14T07:33:36;5.17;;;2.80;;
4377;SDS011;2203;53.686;9.994;2023-06-14T07:36:02;11.70;;;2.63;;
4377;SDS011;2203;53.686;9.994;2023-06-14T07:38:28;13.93;;;2.88;;
4377;SDS011;2203;53.686;9.994;2023-06-14T07:40:53;6.17;;;2.83;;
4377;SDS011;2203;53.686;9.994;2023-06-14T07:43:18;13.77;;;3.00;;
4377;SDS011;2203;53.686;9.994;2023-06-14T07:45:44;7.57;;;2.77;;
4377;SDS011;2203;53.686;9.994;2023-06-14T07:48:10;12.60;;;3.73;;
4377;SDS011;2203;53.686;9.994;2023-06-14T07:50:36;9.57;;;2.87;;
4377;SDS011;2203;53.686;9.994;2023-06-14T07:53:01;12.87;;;2.87;;
4377;SDS011;2203;53.686;9.994;2023-06-14T07:55:26;10.43;;;3.00;;
4377;SDS011;2203;53.686;9.994;2023-06-14T07:57:52;3.53;;;2.67;;
4377;SDS011;2203;53.686;9.994;2023-06-14T08:00:18;9.83;;;2.93;;
4377;SDS011;2203;53.686;9.994;2023-06-14T08:02:45;12.85;;;3.83;;
4377;SDS011;2203;53.686;9.994;2023-06-14T08:05:11;6.70;;;2.80;;
4377;SDS011;2203;53.686;9.994;2023-06-14T08:07:37;10.70;;;2.90;;
4377;SDS011;2203;53.686;9.994;2023-06-14T08:10:03;5.40;;;2.50;;
4377;SDS011;2203;53.686;9.994;2023-06-14T08:12:29;6.03;;;2.53;;
4377;SDS011;2203;53.686;9.994;2023-06-14T08:14:55;7.77;;;2.60;;
4377;SDS011;2203;53.686;9.994;2023-06-14T08:17:20;8.50;;;3.10;;
4377;SDS011;2203;53.686;9.994;2023-06-14T08:19:45;7.43;;;2.73;;
4377;SDS011;2203;53.686;9.994;2023-06-14T08:22:11;5.28;;;2.83;;
4377;SDS011;2203;53.686;9.994;2023-06-14T08:24:37;9.40;;;2.90;;
4377;SDS011;2203;53.686;9.994;2023-06-14T08:27:05;10.47;;;3.20;;
4377;SDS011;2203;53.686;9.994;2023-06-14T08:29:31;13.97;;;2.50;;
4377;SDS011;2203;53.686;9.994;2023-06-14T08:31:57;7.27;;;2.33;;
4377;SDS011;2203;53.686;9.994;2023-06-14T08:34:22;12.10;;;3.17;;
4377;SDS011;2203;53.686;9.994;2023-06-14T08:36:49;5.50;;;3.17;;
4377;SDS011;2203;53.686;9.994;2023-06-14T08:39:15;5.80;;;2.77;;
4377;SDS011;2203;53.686;9.994;2023-06-14T08:41:41;22.30;;;3.20;;
4377;SDS011;2203;53.686;9.994;2023-06-14T08:44:08;6.77;;;2.60;;
4377;SDS011;2203;53.686;9.994;2023-06-14T08:46:34;10.50;;;2.80;;
4377;SDS011;2203;53.686;9.994;2023-06-14T08:49:01;15.73;;;3.30;;
4377;SDS011;2203;53.686;9.994;2023-06-14T08:51:27;10.60;;;3.00;;
4377;SDS011;2203;53.686;9.994;2023-06-14T08:53:58;24.67;;;2.67;;
4377;SDS011;2203;53.686;9.994;2023-06-14T08:56:27;13.43;;;3.47;;
4377;SDS011;2203;53.686;9.994;2023-06-14T08:58:54;8.07;;;3.30;;
4377;SDS011;2203;53.686;9.994;2023-06-14T09:01:20;8.50;;;3.30;;
4377;SDS011;2203;53.686;9.994;2023-06-14T09:03:47;8.73;;;3.10;;
4377;SDS011;2203;53.686;9.994;2023-06-14T09:06:13;36.30;;;3.20;;
4377;SDS011;2203;53.686;9.994;2023-06-14T09:08:42;6.67;;;2.87;;
4377;SDS011;2203;53.686;9.994;2023-06-14T09:11:11;7.80;;;3.57;;
4377;SDS011;2203;53.686;9.994;2023-06-14T09:13:39;14.23;;;3.17;;
4377;SDS011;2203;53.686;9.994;2023-06-14T09:16:06;23.67;;;3.33;;
4377;SDS011;2203;53.686;9.994;2023-06-14T09:18:35;44.33;;;3.83;;
4377;SDS011;2203;53.686;9.994;2023-06-14T09:21:01;6.10;;;2.70;;
4377;SDS011;2203;53.686;9.994;2023-06-14T09:23:26;10.20;;;2.83;;
4377;SDS011;2203;53.686;9.994;2023-06-14T09:25:52;21.50;;;3.43;;
4377;SDS011;2203;53.686;9.994;2023-06-14T09:28:17;20.07;;;3.10;;
4377;SDS011;2203;53.686;9.994;2023-06-14T09:30:42;5.77;;;2.70;;
4377;SDS011;2203;53.686;9.994;2023-06-14T09:33:08;13.83;;;2.73;;
4377;SDS011;2203;53.686;9.994;2023-06-14T09:35:33;17.33;;;3.00;;
4377;SDS011;2203;53.686;9.994;2023-06-14T09:37:59;7.40;;;2.83;;
4377;SDS011;2203;53.686;9.994;2023-06-14T09:40:24;8.73;;;2.70;;
4377;SDS011;2203;53.686;9.994;2023-06-14T09:42:50;11.77;;;3.00;;
4377;SDS011;2203;53.686;9.994;2023-06-14T09:45:16;6.90;;;3.43;;
4377;SDS011;2203;53.686;9.994;2023-06-14T09:47:47;4.00;;;2.60;;
4377;SDS011;2203;53.686;9.994;2023-06-14T09:50:13;13.53;;;3.20;;
4377;SDS011;2203;53.686;9.994;2023-06-14T09:52:39;10.63;;;2.93;;
4377;SDS011;2203;53.686;9.994;2023-06-14T09:55:07;11.77;;;2.77;;
4377;SDS011;2203;53.686;9.994;2023-06-14T09:57:37;35.13;;;3.50;;
4377;SDS011;2203;53.686;9.994;2023-06-14T10:00:06;9.00;;;3.20;;
4377;SDS011;2203;53.686;9.994;2023-06-14T10:02:37;9.33;;;2.93;;
4377;SDS011;2203;53.686;9.994;2023-06-14T10:05:07;5.20;;;2.80;;
4377;SDS011;2203;53.686;9.994;2023-06-14T10:08:19;5.30;;;3.00;;
4377;SDS011;2203;53.686;9.994;2023-06-14T10:10:27;6.60;;;3.07;;
4377;SDS011;2203;53.686;9.994;2023-06-14T10:12:52;9.50;;;3.37;;
4377;SDS011;2203;53.686;9.994;2023-06-14T10:15:29;16.57;;;3.27;;
4377;SDS011;2203;53.686;9.994;2023-06-14T10:20:59;19.80;;;2.90;;
4377;SDS011;2203;53.686;9.994;2023-06-14T10:23:32;21.37;;;2.97;;
4377;SDS011;2203;53.686;9.994;2023-06-14T10:26:00;15.33;;;3.10;;
4377;SDS011;2203;53.686;9.994;2023-06-14T10:28:26;7.63;;;2.83;;
4377;SDS011;2203;53.686;9.994;2023-06-14T10:31:08;6.00;;;2.50;;
4377;SDS011;2203;53.686;9.994;2023-06-14T10:33:35;8.43;;;2.40;;
4377;SDS011;2203;53.686;9.994;2023-06-14T10:39:07;20.37;;;3.30;;
4377;SDS011;2203;53.686;9.994;2023-06-14T10:41:37;15.43;;;3.97;;
4377;SDS011;2203;53.686;9.994;2023-06-14T10:46:38;7.13;;;2.97;;
4377;SDS011;2203;53.686;9.994;2023-06-14T10:49:04;14.30;;;4.30;;
4377;SDS011;2203;53.686;9.994;2023-06-14T10:51:31;4.70;;;2.53;;
4377;SDS011;2203;53.686;9.994;2023-06-14T10:54:11;14.70;;;3.30;;
4377;SDS011;2203;53.686;9.994;2023-06-14T10:56:46;10.90;;;3.40;;
4377;SDS011;2203;53.686;9.994;2023-06-14T10:59:13;12.90;;;3.80;;
4377;SDS011;2203;53.686;9.994;2023-06-14T11:01:58;8.50;;;3.10;;
4377;SDS011;2203;53.686;9.994;2023-06-14T11:07:39;13.37;;;3.60;;
4377;SDS011;2203;53.686;9.994;2023-06-14T11:12:49;3.03;;;2.20;;
4377;SDS011;2203;53.686;9.994;2023-06-14T11:15:16;9.83;;;3.03;;
4377;SDS011;2203;53.686;9.994;2023-06-14T11:17:51;11.60;;;2.77;;
4377;SDS011;2203;53.686;9.994;2023-06-14T11:20:18;10.80;;;2.80;;
4377;SDS011;2203;53.686;9.994;2023-06-14T11:22:44;5.20;;;2.77;;
4377;SDS011;2203;53.686;9.994;2023-06-14T11:25:13;4.63;;;2.60;;
4377;SDS011;2203;53.686;9.994;2023-06-14T11:27:42;8.53;;;2.83;;
4377;SDS011;2203;53.686;9.994;2023-06-14T11:30:08;5.57;;;3.20;;
4377;SDS011;2203;53.686;9.994;2023-06-14T11:32:35;18.03;;;2.90;;
4377;SDS011;2203;53.686;9.994;2023-06-14T11:35:01;10.23;;;2.73;;
4377;SDS011;2203;53.686;9.994;2023-06-14T11:37:27;6.60;;;3.13;;
4377;SDS011;2203;53.686;9.994;2023-06-14T11:39:58;22.43;;;3.20;;
4377;SDS011;2203;53.686;9.994;2023-06-14T11:42:28;11.10;;;2.73;;
4377;SDS011;2203;53.686;9.994;2023-06-14T11:44:55;5.83;;;2.07;;
4377;SDS011;2203;53.686;9.994;2023-06-14T11:47:20;16.93;;;3.37;;
4377;SDS011;2203;53.686;9.994;2023-06-14T11:49:47;7.37;;;2.57;;
4377;SDS011;2203;53.686;9.994;2023-06-14T11:52:12;7.87;;;2.70;;
4377;SDS011;2203;53.686;9.994;2023-06-14T11:54:38;7.27;;;2.80;;
4377;SDS011;2203;53.686;9.994;2023-06-14T11:57:06;9.80;;;3.03;;
4377;SDS011;2203;53.686;9.994;2023-06-14T11:59:32;6.93;;;2.57;;
4377;SDS011;2203;53.686;9.994;2023-06-14T12:01:57;5.67;;;2.87;;
4377;SDS011;2203;53.686;9.994;2023-06-14T12:04:23;3.93;;;2.53;;
4377;SDS011;2203;53.686;9.994;2023-06-14T12:06:50;5.27;;;2.83;;
4377;SDS011;2203;53.686;9.994;2023-06-14T12:09:18;11.65;;;2.80;;
4377;SDS011;2203;53.686;9.994;2023-06-14T12:11:45;11.90;;;3.07;;
4377;SDS011;2203;53.686;9.994;2023-06-14T12:14:10;8.37;;;2.80;;
4377;SDS011;2203;53.686;9.994;2023-06-14T12:16:39;4.43;;;2.80;;
4377;SDS011;2203;53.686;9.994;2023-06-14T12:19:11;10.07;;;3.13;;
4377;SDS011;2203;53.686;9.994;2023-06-14T12:21:40;19.13;;;2.83;;
4377;SDS011;2203;53.686;9.994;2023-06-14T12:24:06;9.80;;;2.83;;
4377;SDS011;2203;53.686;9.994;2023-06-14T12:26:33;41.83;;;4.30;;
4377;SDS011;2203;53.686;9.994;2023-06-14T12:28:58;7.60;;;2.87;;
4377;SDS011;2203;53.686;9.994;2023-06-14T12:31:24;5.80;;;2.70;;
4377;SDS011;2203;53.686;9.994;2023-06-14T12:33:51;6.73;;;2.77;;
4377;SDS011;2203;53.686;9.994;2023-06-14T12:36:17;20.17;;;3.10;;
4377;SDS011;2203;53.686;9.994;2023-06-14T12:38:42;29.50;;;3.73;;
4377;SDS011;2203;53.686;9.994;2023-06-14T12:41:08;10.73;;;2.70;;
4377;SDS011;2203;53.686;9.994;2023-06-14T12:43:34;4.63;;;2.60;;
4377;SDS011;2203;53.686;9.994;2023-06-14T12:45:59;12.90;;;3.03;;
4377;SDS011;2203;53.686;9.994;2023-06-14T12:48:26;7.45;;;2.28;;
4377;SDS011;2203;53.686;9.994;2023-06-14T12:50:56;14.68;;;2.97;;
4377;SDS011;2203;53.686;9.994;2023-06-14T12:53:21;16.73;;;3.07;;
4377;SDS011;2203;53.686;9.994;2023-06-14T12:55:48;7.23;;;2.97;;
4377;SDS011;2203;53.686;9.994;2023-06-14T12:58:13;5.57;;;2.60;;
4377;SDS011;2203;53.686;9.994;2023-06-14T13:00:39;16.20;;;4.10;;
4377;SDS011;2203;53.686;9.994;2023-06-14T13:03:05;15.00;;;3.17;;
4377;SDS011;2203;53.686;9.994;2023-06-14T13:05:30;4.40;;;2.53;;
4377;SDS011;2203;53.686;9.994;2023-06-14T13:07:58;11.93;;;2.60;;
4377;SDS011;2203;53.686;9.994;2023-06-14T13:10:24;9.23;;;2.80;;
4377;SDS011;2203;53.686;9.994;2023-06-14T13:12:50;6.47;;;2.70;;
4377;SDS011;2203;53.686;9.994;2023-06-14T13:15:15;25.87;;;3.23;;
4377;SDS011;2203;53.686;9.994;2023-06-14T13:17:40;5.23;;;3.00;;
4377;SDS011;2203;53.686;9.994;2023-06-14T13:20:07;10.43;;;3.07;;
4377;SDS011;2203;53.686;9.994;2023-06-14T13:22:33;18.03;;;3.30;;
4377;SDS011;2203;53.686;9.994;2023-06-14T13:24:59;20.83;;;2.70;;
4377;SDS011;2203;53.686;9.994;2023-06-14T13:27:25;12.83;;;3.20;;
4377;SDS011;2203;53.686;9.994;2023-06-14T13:29:51;15.10;;;3.13;;
4377;SDS011;2203;53.686;9.994;2023-06-14T13:32:17;7.30;;;2.47;;
4377;SDS011;2203;53.686;9.994;2023-06-14T13:34:42;6.40;;;2.43;;
4377;SDS011;2203;53.686;9.994;2023-06-14T13:37:08;37.27;;;3.20;;
4377;SDS011;2203;53.686;9.994;2023-06-14T13:39:33;6.50;;;2.60;;
4377;SDS011;2203;53.686;9.994;2023-06-14T13:41:58;5.07;;;2.80;;
4377;SDS011;2203;53.686;9.994;2023-06-14T13:44:24;30.97;;;2.90;;
4377;SDS011;2203;53.686;9.994;2023-06-14T13:46:50;10.40;;;2.30;;
4377;SDS011;2203;53.686;9.994;2023-06-14T13:49:15;20.70;;;3.20;;
4377;SDS011;2203;53.686;9.994;2023-06-14T13:51:42;5.50;;;3.10;;
4377;SDS011;2203;53.686;9.994;2023-06-14T13:54:08;11.80;;;2.30;;
4377;SDS011;2203;53.686;9.994;2023-06-14T13:56:33;7.43;;;2.20;;
4377;SDS011;2203;53.686;9.994;2023-06-14T13:58:58;7.23;;;2.33;;
4377;SDS011;2203;53.686;9.994;2023-06-14T14:01:25;13.87;;;2.57;;
4377;SDS011;2203;53.686;9.994;2023-06-14T14:03:51;4.28;;;2.30;;
4377;SDS011;2203;53.686;9.994;2023-06-14T14:06:17;9.73;;;3.10;;
4377;SDS011;2203;53.686;9.994;2023-06-14T14:08:42;8.97;;;3.30;;
4377;SDS011;2203;53.686;9.994;2023-06-14T14:11:08;4.07;;;2.53;;
4377;SDS011;2203;53.686;9.994;2023-06-14T14:13:34;6.93;;;2.13;;
4377;SDS011;2203;53.686;9.994;2023-06-14T14:16:04;5.70;;;2.53;;
4377;SDS011;2203;53.686;9.994;2023-06-14T14:18:30;5.90;;;2.50;;
4377;SDS011;2203;53.686;9.994;2023-06-14T14:20:55;3.17;;;2.10;;
4377;SDS011;2203;53.686;9.994;2023-06-14T14:23:21;5.73;;;2.33;;
4377;SDS011;2203;53.686;9.994;2023-06-14T14:25:47;8.17;;;2.30;;
4377;SDS011;2203;53.686;9.994;2023-06-14T14:28:12;7.47;;;2.40;;
4377;SDS011;2203;53.686;9.994;2023-06-14T14:30:40;3.90;;;2.27;;
4377;SDS011;2203;53.686;9.994;2023-06-14T14:33:06;10.63;;;2.27;;
4377;SDS011;2203;53.686;9.994;2023-06-14T14:35:32;6.73;;;2.37;;
4377;SDS011;2203;53.686;9.994;2023-06-14T14:37:57;5.23;;;2.43;;
4377;SDS011;2203;53.686;9.994;2023-06-14T14:40:22;13.20;;;2.30;;
4377;SDS011;2203;53.686;9.994;2023-06-14T14:42:48;6.63;;;2.73;;
4377;SDS011;2203;53.686;9.994;2023-06-14T14:45:13;14.13;;;2.80;;
4377;SDS011;2203;53.686;9.994;2023-06-14T14:47:39;7.23;;;2.70;;
4377;SDS011;2203;53.686;9.994;2023-06-14T14:50:04;11.27;;;2.87;;
4377;SDS011;2203;53.686;9.994;2023-06-14T14:52:33;8.63;;;2.00;;
4377;SDS011;2203;53.686;9.994;2023-06-14T14:54:59;5.07;;;2.40;;
4377;SDS011;2203;53.686;9.994;2023-06-14T14:57:25;9.50;;;2.43;;
4377;SDS011;2203;53.686;9.994;2023-06-14T14:59:51;3.80;;;2.40;;
4377;SDS011;2203;53.686;9.994;2023-06-14T15:02:16;8.60;;;2.63;;
4377;SDS011;2203;53.686;9.994;2023-06-14T15:04:42;4.97;;;2.70;;
4377;SDS011;2203;53.686;9.994;2023-06-14T15:07:07;8.87;;;2.20;;
4377;SDS011;2203;53.686;9.994;2023-06-14T15:09:33;3.77;;;2.20;;
4377;SDS011;2203;53.686;9.994;2023-06-14T15:11:58;18.33;;;2.87;;
4377;SDS011;2203;53.686;9.994;2023-06-14T15:14:24;8.83;;;3.10;;
4377;SDS011;2203;53.686;9.994;2023-06-14T15:16:49;14.20;;;2.30;;
4377;SDS011;2203;53.686;9.994;2023-06-14T15:19:14;21.53;;;2.83;;
4377;SDS011;2203;53.686;9.994;2023-06-14T15:21:42;9.43;;;2.27;;
4377;SDS011;2203;53.686;9.994;2023-06-14T15:24:08;5.13;;;2.43;;
4377;SDS011;2203;53.686;9.994;2023-06-14T15:26:33;22.93;;;3.00;;